createdAt,value
2023-03-06T00:00:08.184Z,1013.34
2023-03-06T00:00:42.102Z,1013.41
2023-03-06T00:01:11.741Z,1013.41
2023-03-06T00:01:43.875Z,1013.34
2023-03-06T00:02:15.836Z,1013.34
2023-03-06T00:02:47.886Z,1013.34
2023-03-06T00:03:11.337Z,1013.24
2023-03-06T00:03:32.694Z,1013.24
2023-03-06T00:04:08.059Z,1013.24
2023-03-06T00:04:39.874Z,1013.34
2023-03-06T00:05:11.751Z,1013.34
2023-03-06T00:05:43.744Z,1013.34
2023-03-06T00:06:15.629Z,1013.34
2023-03-06T00:06:48.203Z,1013.24
2023-03-06T00:07:11.449Z,1013.41
2023-03-06T00:07:39.240Z,1013.41
2023-03-06T00:08:07.715Z,1013.41
2023-03-06T00:08:39.809Z,1013.34
2023-03-06T00:09:12.187Z,1013.34
2023-03-06T00:09:44.010Z,1013.24
2023-03-06T00:10:15.752Z,1013.24
2023-03-06T00:10:47.926Z,1013.34
2023-03-06T00:11:12.501Z,1013.41
2023-03-06T00:11:32.728Z,1013.41
2023-03-06T00:12:07.631Z,1013.41
2023-03-06T00:12:39.675Z,1013.34
2023-03-06T00:13:12.932Z,1013.34
2023-03-06T00:13:44.485Z,1013.24
2023-03-06T00:14:15.589Z,1013.24
2023-03-06T00:14:47.717Z,1013.14
2023-03-06T00:15:10.634Z,1013.14
2023-03-06T00:15:32.860Z,1013.14
2023-03-06T00:16:08.194Z,1013.14
2023-03-06T00:16:39.706Z,1013.34
2023-03-06T00:17:13.612Z,1013.34
2023-03-06T00:17:43.923Z,1013.14
2023-03-06T00:18:15.785Z,1013.14
2023-03-06T00:18:47.772Z,1013.04
2023-03-06T00:19:10.516Z,1013.14
2023-03-06T00:19:33.123Z,1013.14
2023-03-06T00:20:07.763Z,1013.14
2023-03-06T00:20:39.681Z,1013.14
2023-03-06T00:21:11.692Z,1013.14
2023-03-06T00:21:44.009Z,1013.14
2023-03-06T00:22:15.731Z,1013.14
2023-03-06T00:22:47.779Z,1012.93
2023-03-06T00:23:11.797Z,1012.83
2023-03-06T00:23:33.878Z,1012.83
2023-03-06T00:24:07.909Z,1012.83
2023-03-06T00:24:39.735Z,1013.04
2023-03-06T00:25:11.629Z,1013.04
2023-03-06T00:25:43.927Z,1013.04
2023-03-06T00:26:15.943Z,1013.04
2023-03-06T00:26:47.602Z,1013.04
2023-03-06T00:27:10.239Z,1013.04
2023-03-06T00:27:32.628Z,1013.04
2023-03-06T00:28:07.812Z,1013.04
2023-03-06T00:28:39.700Z,1013.14
2023-03-06T00:29:11.650Z,1013.14
2023-03-06T00:29:43.934Z,1013.14
2023-03-06T00:30:15.797Z,1013.14
2023-03-06T00:30:47.596Z,1012.93
2023-03-06T00:31:10.625Z,1013.04
2023-03-06T00:31:33.089Z,1013.04
2023-03-06T00:32:07.832Z,1013.04
2023-03-06T00:32:39.569Z,1013.04
2023-03-06T00:33:11.753Z,1013.04
2023-03-06T00:33:43.617Z,1013.04
2023-03-06T00:34:16.051Z,1013.04
2023-03-06T00:34:47.684Z,1012.93
2023-03-06T00:35:10.780Z,1013.04
2023-03-06T00:35:32.814Z,1013.04
2023-03-06T00:36:07.806Z,1013.04
2023-03-06T00:36:39.904Z,1012.73
2023-03-06T00:37:11.851Z,1012.73
2023-03-06T00:37:43.877Z,1012.93
2023-03-06T00:38:16.743Z,1012.93
2023-03-06T00:38:47.764Z,1012.83
2023-03-06T00:39:11.404Z,1012.93
2023-03-06T00:39:33.622Z,1012.93
2023-03-06T00:40:07.685Z,1012.93
2023-03-06T00:40:39.617Z,1012.93
2023-03-06T00:41:11.689Z,1012.93
2023-03-06T00:41:46.626Z,1012.73
2023-03-06T00:42:17.718Z,1012.73
2023-03-06T00:42:47.863Z,1013.04
2023-03-06T00:43:10.622Z,1012.83
2023-03-06T00:43:33.257Z,1012.83
2023-03-06T00:44:07.661Z,1012.83
2023-03-06T00:44:39.901Z,1013.14
2023-03-06T00:45:11.820Z,1013.14
2023-03-06T00:45:44.005Z,1012.83
2023-03-06T00:46:17.512Z,1012.83
2023-03-06T00:46:47.703Z,1012.83
2023-03-06T00:47:10.585Z,1012.83
2023-03-06T00:47:32.979Z,1012.83
2023-03-06T00:48:07.917Z,1012.83
2023-03-06T00:48:39.802Z,1012.63
2023-03-06T00:49:11.977Z,1012.63
2023-03-06T00:49:43.577Z,1012.83
2023-03-06T00:50:18.091Z,1012.83
2023-03-06T00:50:47.857Z,1012.63
2023-03-06T00:51:13.804Z,1012.83
2023-03-06T00:51:32.879Z,1012.83
2023-03-06T00:52:07.700Z,1012.83
2023-03-06T00:52:39.633Z,1012.83
2023-03-06T00:53:11.703Z,1012.83
2023-03-06T00:53:43.655Z,1012.63
2023-03-06T00:54:15.863Z,1012.63
2023-03-06T00:54:47.650Z,1012.73
2023-03-06T00:55:10.761Z,1012.83
2023-03-06T00:55:33.065Z,1012.83
2023-03-06T00:56:07.571Z,1012.83
2023-03-06T00:56:39.631Z,1012.53
2023-03-06T00:57:11.575Z,1012.53
2023-03-06T00:57:43.983Z,1012.73
2023-03-06T00:58:15.602Z,1012.73
2023-03-06T00:58:47.693Z,1012.53
2023-03-06T00:59:10.511Z,1012.73
2023-03-06T00:59:32.861Z,1012.73
2023-03-06T01:00:08.031Z,1012.73
2023-03-06T01:00:42.306Z,1012.53
2023-03-06T01:01:11.677Z,1012.53
2023-03-06T01:01:43.791Z,1012.63
2023-03-06T01:02:15.729Z,1012.63
2023-03-06T01:02:47.649Z,1012.83
2023-03-06T01:03:11.926Z,1012.73
2023-03-06T01:03:34.159Z,1012.73
2023-03-06T01:04:07.964Z,1012.73
2023-03-06T01:04:39.625Z,1012.83
2023-03-06T01:05:11.766Z,1012.83
2023-03-06T01:05:43.586Z,1012.63
2023-03-06T01:06:16.000Z,1012.63
2023-03-06T01:06:47.644Z,1012.73
2023-03-06T01:07:10.463Z,1012.63
2023-03-06T01:07:32.795Z,1012.63
2023-03-06T01:08:07.628Z,1012.63
2023-03-06T01:08:39.918Z,1012.43
2023-03-06T01:09:11.756Z,1012.43
2023-03-06T01:09:43.575Z,1012.83
2023-03-06T01:10:15.667Z,1012.83
2023-03-06T01:10:47.618Z,1012.73
2023-03-06T01:11:11.965Z,1012.63
2023-03-06T01:11:34.429Z,1012.63
2023-03-06T01:12:07.638Z,1012.63
2023-03-06T01:12:39.738Z,1012.83
2023-03-06T01:13:11.839Z,1012.83
2023-03-06T01:13:43.594Z,1012.63
2023-03-06T01:14:15.686Z,1012.63
2023-03-06T01:14:47.796Z,1012.83
2023-03-06T01:15:11.129Z,1012.73
2023-03-06T01:15:33.108Z,1012.73
2023-03-06T01:16:07.683Z,1012.73
2023-03-06T01:16:39.744Z,1012.63
2023-03-06T01:17:11.652Z,1012.63
2023-03-06T01:17:43.671Z,1012.73
2023-03-06T01:18:15.709Z,1012.73
2023-03-06T01:18:47.696Z,1012.83
2023-03-06T01:19:11.603Z,1012.53
2023-03-06T01:19:33.998Z,1012.53
2023-03-06T01:20:07.680Z,1012.53
2023-03-06T01:20:39.776Z,1012.53
2023-03-06T01:21:11.662Z,1012.53
2023-03-06T01:21:43.655Z,1012.43
2023-03-06T01:22:15.710Z,1012.43
2023-03-06T01:22:47.705Z,1012.43
2023-03-06T01:23:11.087Z,1012.43
2023-03-06T01:23:33.224Z,1012.43
2023-03-06T01:24:08.202Z,1012.43
2023-03-06T01:24:39.739Z,1012.43
2023-03-06T01:25:12.013Z,1012.43
2023-03-06T01:25:43.670Z,1012.53
2023-03-06T01:26:15.602Z,1012.53
2023-03-06T01:26:47.674Z,1012.43
2023-03-06T01:27:10.530Z,1012.43
2023-03-06T01:27:33.099Z,1012.43
2023-03-06T01:28:07.980Z,1012.43
2023-03-06T01:28:39.753Z,1012.43
2023-03-06T01:29:11.568Z,1012.43
2023-03-06T01:29:43.701Z,1012.43
2023-03-06T01:30:15.740Z,1012.43
2023-03-06T01:30:47.707Z,1012.53
2023-03-06T01:31:10.462Z,1012.43
2023-03-06T01:31:33.123Z,1012.43
2023-03-06T01:32:07.579Z,1012.43
2023-03-06T01:32:39.877Z,1012.43
2023-03-06T01:33:11.664Z,1012.43
2023-03-06T01:33:43.590Z,1012.33
2023-03-06T01:34:15.959Z,1012.33
2023-03-06T01:34:48.050Z,1012.43
2023-03-06T01:35:11.658Z,1012.43
2023-03-06T01:35:34.293Z,1012.43
2023-03-06T01:36:07.713Z,1012.43
2023-03-06T01:36:40.073Z,1012.43
2023-03-06T01:37:11.585Z,1012.43
2023-03-06T01:37:43.640Z,1012.43
2023-03-06T01:38:15.909Z,1012.43
2023-03-06T01:38:48.270Z,1012.53
2023-03-06T01:39:10.856Z,1012.53
2023-03-06T01:39:33.424Z,1012.53
2023-03-06T01:40:09.013Z,1012.53
2023-03-06T01:40:40.570Z,1012.33
2023-03-06T01:41:13.073Z,1012.33
2023-03-06T01:41:43.994Z,1012.53
2023-03-06T01:42:15.753Z,1012.53
2023-03-06T01:42:47.649Z,1012.43
2023-03-06T01:43:10.279Z,1012.33
2023-03-06T01:43:33.038Z,1012.33
2023-03-06T01:44:07.900Z,1012.33
2023-03-06T01:44:40.190Z,1012.43
2023-03-06T01:45:11.883Z,1012.43
2023-03-06T01:45:44.484Z,1012.12
2023-03-06T01:46:16.333Z,1012.12
2023-03-06T01:46:48.966Z,1012.33
2023-03-06T01:47:11.871Z,1012.02
2023-03-06T01:47:34.104Z,1012.02
2023-03-06T01:48:10.934Z,1012.33
2023-03-06T01:48:33.815Z,1012.33
2023-03-06T01:49:12.590Z,1012.33
2023-03-06T01:49:43.559Z,1012.02
2023-03-06T01:50:15.533Z,1012.02
2023-03-06T01:50:47.681Z,1012.43
2023-03-06T01:51:10.882Z,1012.43
2023-03-06T01:51:33.233Z,1012.43
2023-03-06T01:52:08.082Z,1012.43
2023-03-06T01:52:39.660Z,1012.22
2023-03-06T01:53:11.732Z,1012.22
2023-03-06T01:53:43.540Z,1012.22
2023-03-06T01:54:15.663Z,1012.22
2023-03-06T01:54:47.578Z,1012.12
2023-03-06T01:55:10.485Z,1012.22
2023-03-06T01:55:32.679Z,1012.22
2023-03-06T01:56:07.724Z,1012.22
2023-03-06T01:56:39.548Z,1012.22
2023-03-06T01:57:11.817Z,1012.22
2023-03-06T01:57:43.692Z,1012.22
2023-03-06T01:58:15.586Z,1012.22
2023-03-06T01:58:47.551Z,1012.33
2023-03-06T01:59:10.268Z,1012.12
2023-03-06T01:59:32.528Z,1012.12
2023-03-06T02:00:07.871Z,1012.12
2023-03-06T02:00:41.305Z,1012.12
2023-03-06T02:01:14.162Z,1012.12
2023-03-06T02:01:43.962Z,1012.12
2023-03-06T02:02:15.698Z,1012.12
2023-03-06T02:02:47.914Z,1012.22
2023-03-06T02:03:13.091Z,1012.33
2023-03-06T02:03:35.515Z,1012.33
2023-03-06T02:04:09.394Z,1012.33
2023-03-06T02:04:40.967Z,1012.02
2023-03-06T02:05:12.117Z,1012.02
2023-03-06T02:05:44.377Z,1012.22
2023-03-06T02:06:16.076Z,1012.22
2023-03-06T02:06:47.825Z,1012.02
2023-03-06T02:07:10.569Z,1012.02
2023-03-06T02:07:33.573Z,1012.02
2023-03-06T02:08:08.899Z,1012.02
2023-03-06T02:08:40.344Z,1012.22
2023-03-06T02:09:11.975Z,1012.22
2023-03-06T02:09:43.631Z,1011.82
2023-03-06T02:10:15.752Z,1011.82
2023-03-06T02:10:47.811Z,1012.02
2023-03-06T02:11:10.497Z,1012.12
2023-03-06T02:11:34.462Z,1012.12
2023-03-06T02:12:07.836Z,1012.12
2023-03-06T02:12:39.753Z,1012.02
2023-03-06T02:13:11.665Z,1012.02
2023-03-06T02:13:43.714Z,1011.92
2023-03-06T02:14:15.750Z,1011.92
2023-03-06T02:14:48.082Z,1011.82
2023-03-06T02:15:10.914Z,1012.02
2023-03-06T02:15:33.112Z,1012.02
2023-03-06T02:16:07.719Z,1012.02
2023-03-06T02:16:40.050Z,1012.02
2023-03-06T02:17:12.047Z,1012.02
2023-03-06T02:17:43.826Z,1012.12
2023-03-06T02:18:15.910Z,1012.12
2023-03-06T02:18:47.734Z,1011.92
2023-03-06T02:19:10.470Z,1012.12
2023-03-06T02:19:32.903Z,1012.12
2023-03-06T02:20:07.744Z,1012.12
2023-03-06T02:20:39.929Z,1011.92
2023-03-06T02:21:12.219Z,1011.92
2023-03-06T02:21:44.174Z,1011.92
2023-03-06T02:22:15.637Z,1011.92
2023-03-06T02:22:48.381Z,1011.72
2023-03-06T02:23:10.971Z,1011.92
2023-03-06T02:23:33.190Z,1011.92
2023-03-06T02:24:08.328Z,1011.92
2023-03-06T02:24:39.744Z,1011.72
2023-03-06T02:25:12.266Z,1011.72
2023-03-06T02:25:44.657Z,1011.92
2023-03-06T02:26:16.948Z,1011.92
2023-03-06T02:26:47.794Z,1012.12
2023-03-06T02:27:11.751Z,1011.82
2023-03-06T02:27:32.961Z,1011.82
2023-03-06T02:28:07.892Z,1011.82
2023-03-06T02:28:40.176Z,1012.02
2023-03-06T02:29:11.693Z,1012.02
2023-03-06T02:29:45.302Z,1011.82
2023-03-06T02:30:15.796Z,1011.82
2023-03-06T02:30:48.594Z,1011.82
2023-03-06T02:31:11.733Z,1011.72
2023-03-06T02:31:34.064Z,1011.72
2023-03-06T02:32:08.340Z,1011.72
2023-03-06T02:32:39.706Z,1012.02
2023-03-06T02:33:11.804Z,1012.02
2023-03-06T02:33:44.193Z,1011.72
2023-03-06T02:34:20.646Z,1011.92
2023-03-06T02:34:43.195Z,1011.92
2023-03-06T02:35:16.055Z,1011.82
2023-03-06T02:35:51.724Z,1011.82
2023-03-06T02:36:14.385Z,1011.72
2023-03-06T02:36:37.203Z,1011.72
2023-03-06T02:37:11.904Z,1011.72
2023-03-06T02:37:43.660Z,1011.92
2023-03-06T02:38:15.752Z,1011.92
2023-03-06T02:38:47.757Z,1012.02
2023-03-06T02:39:13.016Z,1011.82
2023-03-06T02:39:35.948Z,1011.82
2023-03-06T02:40:08.132Z,1011.82
2023-03-06T02:40:39.683Z,1011.82
2023-03-06T02:41:11.695Z,1011.82
2023-03-06T02:41:43.658Z,1011.92
2023-03-06T02:42:16.115Z,1011.92
2023-03-06T02:42:47.505Z,1012.02
2023-03-06T02:43:10.455Z,1011.72
2023-03-06T02:43:32.806Z,1011.72
2023-03-06T02:44:07.609Z,1011.72
2023-03-06T02:44:39.638Z,1011.61
2023-03-06T02:45:11.704Z,1011.61
2023-03-06T02:45:43.559Z,1011.72
2023-03-06T02:46:15.802Z,1011.72
2023-03-06T02:46:47.674Z,1011.61
2023-03-06T02:47:12.459Z,1011.82
2023-03-06T02:47:34.689Z,1011.82
2023-03-06T02:48:07.644Z,1011.82
2023-03-06T02:48:39.665Z,1011.51
2023-03-06T02:49:11.628Z,1011.51
2023-03-06T02:49:43.674Z,1011.72
2023-03-06T02:50:15.914Z,1011.72
2023-03-06T02:50:48.087Z,1011.72
2023-03-06T02:51:10.881Z,1011.51
2023-03-06T02:51:33.150Z,1011.51
2023-03-06T02:52:07.560Z,1011.51
2023-03-06T02:52:39.662Z,1011.51
2023-03-06T02:53:11.911Z,1011.51
2023-03-06T02:53:43.751Z,1011.61
2023-03-06T02:54:11.907Z,1011.61
2023-03-06T02:54:44.447Z,1011.51
2023-03-06T02:55:17.486Z,1011.72
2023-03-06T02:55:51.781Z,1011.72
2023-03-06T02:56:15.003Z,1011.51
2023-03-06T02:56:37.404Z,1011.51
2023-03-06T02:57:12.161Z,1011.51
2023-03-06T02:57:44.586Z,1011.51
2023-03-06T02:58:15.697Z,1011.51
2023-03-06T02:58:49.316Z,1011.41
2023-03-06T02:59:10.521Z,1011.41
2023-03-06T02:59:34.591Z,1011.41
2023-03-06T03:00:17.054Z,1011.41
2023-03-06T03:00:40.218Z,1011.51
2023-03-06T03:01:12.802Z,1011.51
2023-03-06T03:01:44.755Z,1011.31
2023-03-06T03:02:22.411Z,1011.41
2023-03-06T03:02:48.108Z,1011.41
2023-03-06T03:03:17.327Z,1011.51
2023-03-06T03:04:20.896Z,1011.51
2023-03-06T03:04:56.939Z,1011.51
2023-03-06T03:05:41.966Z,1011.31
2023-03-06T03:06:16.868Z,1011.31
2023-03-06T03:06:48.244Z,1011.41
2023-03-06T03:07:11.253Z,1011.51
2023-03-06T03:07:35.264Z,1011.51
2023-03-06T03:08:07.710Z,1011.51
2023-03-06T03:08:39.799Z,1011.61
2023-03-06T03:09:11.867Z,1011.61
2023-03-06T03:09:43.672Z,1011.51
2023-03-06T03:10:17.057Z,1011.51
2023-03-06T03:10:48.123Z,1011.61
2023-03-06T03:11:10.751Z,1011.51
2023-03-06T03:11:35.858Z,1011.51
2023-03-06T03:12:08.329Z,1011.51
2023-03-06T03:12:41.365Z,1011.51
2023-03-06T03:13:12.643Z,1011.51
2023-03-06T03:13:43.723Z,1011.41
2023-03-06T03:14:17.816Z,1011.31
2023-03-06T03:14:47.791Z,1011.31
2023-03-06T03:15:10.226Z,1011.51
2023-03-06T03:15:33.211Z,1011.51
2023-03-06T03:16:07.877Z,1011.51
2023-03-06T03:16:40.920Z,1011.24
2023-03-06T03:17:11.707Z,1011.24
2023-03-06T03:17:45.042Z,1011.31
2023-03-06T03:18:15.942Z,1011.31
2023-03-06T03:18:49.124Z,1011.24
2023-03-06T03:19:11.749Z,1011.24
2023-03-06T03:19:34.136Z,1011.24
2023-03-06T03:20:08.230Z,1011.24
2023-03-06T03:20:40.029Z,1011.24
2023-03-06T03:21:17.812Z,1011.14
2023-03-06T03:21:40.242Z,1011.14
2023-03-06T03:22:15.655Z,1011.14
2023-03-06T03:22:42.067Z,1011.41
2023-03-06T03:23:16.272Z,1011.24
2023-03-06T03:23:52.242Z,1011.24
2023-03-06T03:24:16.708Z,1011.51
2023-03-06T03:24:37.821Z,1011.51
2023-03-06T03:25:13.138Z,1011.51
2023-03-06T03:25:43.769Z,1011.41
2023-03-06T03:26:16.621Z,1011.41
2023-03-06T03:26:47.957Z,1011.24
2023-03-06T03:27:10.429Z,1011.41
2023-03-06T03:27:33.863Z,1011.41
2023-03-06T03:28:07.684Z,1011.41
2023-03-06T03:28:44.125Z,1011.41
2023-03-06T03:29:11.956Z,1011.24
2023-03-06T03:29:43.955Z,1011.31
2023-03-06T03:30:15.809Z,1011.31
2023-03-06T03:30:50.857Z,1011.24
2023-03-06T03:31:13.503Z,1011.24
2023-03-06T03:31:52.826Z,1011.24
2023-03-06T03:32:15.669Z,1011.24
2023-03-06T03:32:39.030Z,1011.24
2023-03-06T03:33:11.714Z,1011.24
2023-03-06T03:33:44.141Z,1011.04
2023-03-06T03:34:29.293Z,1011.24
2023-03-06T03:34:45.368Z,1011.24
2023-03-06T03:35:15.988Z,1011.24
2023-03-06T03:35:51.828Z,1011.24
2023-03-06T03:36:14.456Z,1011.41
2023-03-06T03:36:36.923Z,1011.41
2023-03-06T03:37:11.752Z,1011.41
2023-03-06T03:37:43.708Z,1011.24
2023-03-06T03:38:15.592Z,1011.24
2023-03-06T03:38:48.171Z,1011.31
2023-03-06T03:39:10.539Z,1011.24
2023-03-06T03:39:33.132Z,1011.24
2023-03-06T03:40:07.632Z,1011.24
2023-03-06T03:40:40.198Z,1011.24
2023-03-06T03:41:11.804Z,1011.24
2023-03-06T03:41:43.668Z,1011.31
2023-03-06T03:42:17.651Z,1011.24
2023-03-06T03:42:47.680Z,1011.24
2023-03-06T03:43:10.325Z,1011.14
2023-03-06T03:43:33.094Z,1011.14
2023-03-06T03:44:07.664Z,1011.14
2023-03-06T03:44:40.806Z,1011.14
2023-03-06T03:45:11.745Z,1011.14
2023-03-06T03:45:43.921Z,1010.94
2023-03-06T03:46:15.590Z,1010.94
2023-03-06T03:46:48.501Z,1011.24
2023-03-06T03:47:10.314Z,1011.04
2023-03-06T03:47:32.648Z,1011.04
2023-03-06T03:48:07.867Z,1011.04
2023-03-06T03:48:42.435Z,1011.14
2023-03-06T03:49:11.587Z,1011.14
2023-03-06T03:49:43.505Z,1010.94
2023-03-06T03:50:16.632Z,1010.94
2023-03-06T03:50:47.811Z,1011.14
2023-03-06T03:51:10.365Z,1011.04
2023-03-06T03:51:32.743Z,1011.04
2023-03-06T03:52:07.535Z,1011.04
2023-03-06T03:52:42.375Z,1010.94
2023-03-06T03:53:11.654Z,1010.94
2023-03-06T03:53:43.574Z,1011.04
2023-03-06T03:54:10.423Z,1011.04
2023-03-06T03:54:44.898Z,1011.24
2023-03-06T03:55:16.971Z,1010.63
2023-03-06T03:55:51.773Z,1010.63
2023-03-06T03:56:14.294Z,1010.73
2023-03-06T03:56:37.657Z,1010.73
2023-03-06T03:57:11.964Z,1010.73
2023-03-06T03:57:44.656Z,1011.04
2023-03-06T03:58:16.164Z,1011.04
2023-03-06T03:58:49.307Z,1010.94
2023-03-06T03:59:12.416Z,1010.94
2023-03-06T03:59:34.546Z,1010.94
2023-03-06T04:00:08.773Z,1010.94
2023-03-06T04:00:41.128Z,1010.84
2023-03-06T04:01:12.835Z,1010.84
2023-03-06T04:01:43.744Z,1010.73
2023-03-06T04:02:15.986Z,1010.73
2023-03-06T04:02:48.564Z,1010.84
2023-03-06T04:03:11.400Z,1010.73
2023-03-06T04:03:34.492Z,1010.73
2023-03-06T04:04:07.964Z,1010.73
2023-03-06T04:04:40.208Z,1010.84
2023-03-06T04:05:11.942Z,1010.84
2023-03-06T04:05:45.923Z,1010.94
2023-03-06T04:06:15.736Z,1010.94
2023-03-06T04:06:48.438Z,1010.73
2023-03-06T04:07:11.219Z,1010.94
2023-03-06T04:07:33.916Z,1010.94
2023-03-06T04:08:08.473Z,1010.94
2023-03-06T04:08:39.785Z,1010.94
2023-03-06T04:09:11.806Z,1010.94
2023-03-06T04:09:45.585Z,1010.84
2023-03-06T04:10:16.635Z,1010.84
2023-03-06T04:10:47.549Z,1010.84
2023-03-06T04:11:10.251Z,1010.94
2023-03-06T04:11:33.648Z,1010.94
2023-03-06T04:12:08.494Z,1010.94
2023-03-06T04:12:40.420Z,1010.84
2023-03-06T04:13:11.506Z,1010.84
2023-03-06T04:13:46.053Z,1010.73
2023-03-06T04:14:16.907Z,1010.73
2023-03-06T04:14:48.372Z,1010.73
2023-03-06T04:15:11.181Z,1010.84
2023-03-06T04:15:33.341Z,1010.84
2023-03-06T04:16:07.704Z,1010.84
2023-03-06T04:16:39.488Z,1010.73
2023-03-06T04:17:11.825Z,1010.73
2023-03-06T04:17:43.587Z,1010.94
2023-03-06T04:18:16.148Z,1010.94
2023-03-06T04:18:47.596Z,1010.94
2023-03-06T04:19:10.450Z,1010.73
2023-03-06T04:19:32.762Z,1010.73
2023-03-06T04:20:07.722Z,1010.73
2023-03-06T04:20:39.682Z,1010.63
2023-03-06T04:21:11.675Z,1010.63
2023-03-06T04:21:46.896Z,1010.63
2023-03-06T04:22:17.131Z,1010.63
2023-03-06T04:22:48.176Z,1010.84
2023-03-06T04:23:11.041Z,1010.73
2023-03-06T04:23:34.091Z,1010.73
2023-03-06T04:24:07.987Z,1010.73
2023-03-06T04:24:40.871Z,1010.63
2023-03-06T04:25:11.748Z,1010.63
2023-03-06T04:25:43.602Z,1010.73
2023-03-06T04:26:16.738Z,1010.73
2023-03-06T04:26:48.052Z,1010.84
2023-03-06T04:27:10.581Z,1010.94
2023-03-06T04:27:33.122Z,1010.94
2023-03-06T04:28:07.621Z,1010.94
2023-03-06T04:28:39.931Z,1010.94
2023-03-06T04:29:11.711Z,1010.94
2023-03-06T04:29:44.925Z,1010.94
2023-03-06T04:30:15.713Z,1010.94
2023-03-06T04:30:48.105Z,1010.84
2023-03-06T04:31:10.843Z,1010.94
2023-03-06T04:31:33.324Z,1010.94
2023-03-06T04:32:08.767Z,1010.94
2023-03-06T04:32:39.707Z,1010.73
2023-03-06T04:33:11.741Z,1010.73
2023-03-06T04:33:44.595Z,1010.84
2023-03-06T04:34:20.593Z,1010.94
2023-03-06T04:34:43.095Z,1010.94
2023-03-06T04:35:16.035Z,1010.94
2023-03-06T04:35:51.795Z,1010.94
2023-03-06T04:36:14.545Z,1010.94
2023-03-06T04:36:36.882Z,1010.94
2023-03-06T04:37:12.733Z,1010.94
2023-03-06T04:37:43.747Z,1010.84
2023-03-06T04:38:15.820Z,1010.84
2023-03-06T04:38:48.980Z,1010.94
2023-03-06T04:39:11.031Z,1011.14
2023-03-06T04:39:33.299Z,1011.14
2023-03-06T04:40:07.754Z,1011.14
2023-03-06T04:40:39.922Z,1010.73
2023-03-06T04:41:11.502Z,1010.73
2023-03-06T04:41:43.686Z,1011.04
2023-03-06T04:42:15.612Z,1011.04
2023-03-06T04:42:49.396Z,1010.84
2023-03-06T04:43:10.453Z,1011.04
2023-03-06T04:43:32.937Z,1011.04
2023-03-06T04:44:07.850Z,1011.04
2023-03-06T04:44:39.599Z,1010.84
2023-03-06T04:45:11.569Z,1010.84
2023-03-06T04:45:44.026Z,1010.94
2023-03-06T04:46:15.519Z,1010.94
2023-03-06T04:46:49.696Z,1011.04
2023-03-06T04:47:10.314Z,1010.84
2023-03-06T04:47:32.734Z,1010.84
2023-03-06T04:48:07.707Z,1010.84
2023-03-06T04:48:41.095Z,1010.94
2023-03-06T04:49:11.774Z,1010.94
2023-03-06T04:49:43.534Z,1011.14
2023-03-06T04:50:15.621Z,1011.14
2023-03-06T04:50:49.253Z,1010.84
2023-03-06T04:51:10.415Z,1010.73
2023-03-06T04:51:32.817Z,1010.73
2023-03-06T04:52:07.855Z,1010.73
2023-03-06T04:52:39.706Z,1011.04
2023-03-06T04:53:11.658Z,1011.04
2023-03-06T04:53:43.489Z,1010.94
2023-03-06T04:54:18.000Z,1010.94
2023-03-06T04:54:47.634Z,1010.94
2023-03-06T04:55:11.545Z,1010.84
2023-03-06T04:55:34.003Z,1010.84
2023-03-06T04:56:07.559Z,1010.84
2023-03-06T04:56:39.541Z,1010.94
2023-03-06T04:57:11.547Z,1010.94
2023-03-06T04:57:43.701Z,1011.04
2023-03-06T04:58:15.553Z,1011.04
2023-03-06T04:58:47.738Z,1011.04
2023-03-06T04:59:10.852Z,1010.94
2023-03-06T04:59:33.244Z,1010.94
2023-03-06T05:00:08.240Z,1010.94
2023-03-06T05:00:41.236Z,1010.84
2023-03-06T05:01:11.649Z,1010.84
2023-03-06T05:01:43.876Z,1010.94
2023-03-06T05:02:15.886Z,1010.94
2023-03-06T05:02:47.639Z,1010.94
2023-03-06T05:03:10.643Z,1010.94
2023-03-06T05:03:32.902Z,1010.94
2023-03-06T05:04:07.697Z,1010.94
2023-03-06T05:04:39.945Z,1010.84
2023-03-06T05:05:11.546Z,1010.84
2023-03-06T05:05:43.493Z,1010.73
2023-03-06T05:06:17.174Z,1010.73
2023-03-06T05:06:47.521Z,1010.73
2023-03-06T05:07:10.477Z,1010.73
2023-03-06T05:07:32.916Z,1010.73
2023-03-06T05:08:07.625Z,1010.73
2023-03-06T05:08:39.610Z,1010.73
2023-03-06T05:09:11.700Z,1010.73
2023-03-06T05:09:43.630Z,1010.84
2023-03-06T05:10:15.754Z,1010.84
2023-03-06T05:10:47.547Z,1010.73
2023-03-06T05:11:10.902Z,1010.63
2023-03-06T05:11:33.225Z,1010.63
2023-03-06T05:12:07.591Z,1010.63
2023-03-06T05:12:39.637Z,1010.73
2023-03-06T05:13:11.466Z,1010.73
2023-03-06T05:13:43.748Z,1010.73
2023-03-06T05:14:15.714Z,1010.73
2023-03-06T05:14:48.223Z,1010.84
2023-03-06T05:15:10.944Z,1010.73
2023-03-06T05:15:33.220Z,1010.73
2023-03-06T05:16:07.746Z,1010.73
2023-03-06T05:16:39.774Z,1010.84
2023-03-06T05:17:11.830Z,1010.84
2023-03-06T05:17:43.531Z,1010.53
2023-03-06T05:18:15.815Z,1010.53
2023-03-06T05:18:50.398Z,1010.63
2023-03-06T05:19:10.587Z,1010.73
2023-03-06T05:19:32.965Z,1010.73
2023-03-06T05:20:07.605Z,1010.73
2023-03-06T05:20:39.500Z,1010.73
2023-03-06T05:21:11.586Z,1010.73
2023-03-06T05:21:43.524Z,1010.43
2023-03-06T05:22:15.819Z,1010.43
2023-03-06T05:22:47.622Z,1010.73
2023-03-06T05:23:10.865Z,1010.73
2023-03-06T05:23:33.170Z,1010.73
2023-03-06T05:24:07.608Z,1010.73
2023-03-06T05:24:39.874Z,1010.63
2023-03-06T05:25:11.676Z,1010.63
2023-03-06T05:25:43.644Z,1010.43
2023-03-06T05:26:15.631Z,1010.43
2023-03-06T05:26:47.619Z,1010.73
2023-03-06T05:27:10.336Z,1010.63
2023-03-06T05:27:32.764Z,1010.63
2023-03-06T05:28:07.500Z,1010.63
2023-03-06T05:28:39.614Z,1010.53
2023-03-06T05:29:11.576Z,1010.53
2023-03-06T05:29:43.638Z,1010.63
2023-03-06T05:30:15.789Z,1010.63
2023-03-06T05:30:47.668Z,1010.73
2023-03-06T05:31:10.375Z,1010.53
2023-03-06T05:31:32.866Z,1010.53
2023-03-06T05:32:07.831Z,1010.53
2023-03-06T05:32:40.199Z,1010.33
2023-03-06T05:33:11.635Z,1010.33
2023-03-06T05:33:43.654Z,1010.53
2023-03-06T05:34:15.786Z,1010.53
2023-03-06T05:34:48.020Z,1010.43
2023-03-06T05:35:12.993Z,1010.53
2023-03-06T05:35:33.837Z,1010.53
2023-03-06T05:36:07.646Z,1010.53
2023-03-06T05:36:39.620Z,1010.63
2023-03-06T05:37:11.749Z,1010.63
2023-03-06T05:37:43.855Z,1010.43
2023-03-06T05:38:15.679Z,1010.43
2023-03-06T05:38:47.709Z,1010.73
2023-03-06T05:39:10.571Z,1010.63
2023-03-06T05:39:32.964Z,1010.63
2023-03-06T05:40:07.639Z,1010.63
2023-03-06T05:40:39.535Z,1010.53
2023-03-06T05:41:11.529Z,1010.53
2023-03-06T05:41:43.716Z,1010.53
2023-03-06T05:42:15.678Z,1010.53
2023-03-06T05:42:47.499Z,1010.53
2023-03-06T05:43:10.468Z,1010.53
2023-03-06T05:43:32.819Z,1010.53
2023-03-06T05:44:08.256Z,1010.53
2023-03-06T05:44:39.983Z,1010.53
2023-03-06T05:45:11.593Z,1010.53
2023-03-06T05:45:43.916Z,1010.63
2023-03-06T05:46:15.723Z,1010.63
2023-03-06T05:46:47.651Z,1010.33
2023-03-06T05:47:10.578Z,1010.63
2023-03-06T05:47:32.861Z,1010.63
2023-03-06T05:48:07.699Z,1010.63
2023-03-06T05:48:39.941Z,1010.43
2023-03-06T05:49:11.525Z,1010.43
2023-03-06T05:49:43.750Z,1010.73
2023-03-06T05:50:15.552Z,1010.73
2023-03-06T05:50:47.537Z,1010.43
2023-03-06T05:51:12.669Z,1010.53
2023-03-06T05:51:34.921Z,1010.53
2023-03-06T05:52:07.727Z,1010.53
2023-03-06T05:52:41.125Z,1010.43
2023-03-06T05:53:11.795Z,1010.43
2023-03-06T05:53:43.577Z,1010.33
2023-03-06T05:54:15.680Z,1010.33
2023-03-06T05:54:47.550Z,1010.43
2023-03-06T05:55:10.269Z,1010.43
2023-03-06T05:55:32.549Z,1010.43
2023-03-06T05:56:08.148Z,1010.43
2023-03-06T05:56:41.928Z,1010.43
2023-03-06T05:57:12.253Z,1010.43
2023-03-06T05:57:43.634Z,1010.73
2023-03-06T05:58:15.738Z,1010.73
2023-03-06T05:58:47.926Z,1010.33
2023-03-06T05:59:10.533Z,1010.43
2023-03-06T05:59:32.675Z,1010.43
2023-03-06T06:00:08.357Z,1010.43
2023-03-06T06:00:42.131Z,1010.43
2023-03-06T06:01:11.589Z,1010.43
2023-03-06T06:01:43.676Z,1010.53
2023-03-06T06:02:15.919Z,1010.53
2023-03-06T06:02:47.939Z,1010.53
2023-03-06T06:03:10.866Z,1010.73
2023-03-06T06:03:33.074Z,1010.73